Time;durP1;ratioP1;P1;durP2;ratioP2;P2;SDS_P1;SDS_P2;PMS_P1;PMS_P2;Temp;Humidity;BMP_temperature;BMP_pressure;BME280_temperature;BME280_humidity;BME280_pressure;Samples;Min_cycle;Max_cycle;Signal;HPM_P1;HPM_P2
2023/01/20 00:01:01;;;;;;;22.83;13.30;;;;;;;-145.18;100.00;46709.22;6182158;23;20017;-69
2023/01/20 00:03:27;;;;;;;28.37;15.57;;;;;;;-145.18;100.00;46703.38;6181874;23;20017;-69
2023/01/20 00:05:52;;;;;;;27.70;14.33;;;;;;;-145.18;100.00;46705.31;6182514;23;20005;-68
2023/01/20 00:08:17;;;;;;;28.73;15.87;;;;;;;-145.18;100.00;46703.38;6181690;23;20067;-68
2023/01/20 00:10:43;;;;;;;31.23;18.07;;;;;;;-145.18;100.00;46699.47;6182691;23;20009;-68
2023/01/20 00:13:08;;;;;;;30.03;16.23;;;;;;;-145.18;100.00;46699.47;6181505;23;20024;-68
2023/01/20 00:15:34;;;;;;;31.20;17.60;;;;;;;-145.18;100.00;46703.38;6182540;23;20044;-68
2023/01/20 00:17:59;;;;;;;30.37;17.00;;;;;;;-145.18;100.00;46699.47;6182003;23;20335;-68
2023/01/20 00:20:24;;;;;;;29.43;17.27;;;;;;;-145.18;100.00;46699.47;6182058;23;20005;-68
2023/01/20 00:22:50;;;;;;;34.47;17.27;;;;;;;-145.18;100.00;46699.47;6182466;23;20001;-68
2023/01/20 00:25:15;;;;;;;34.27;18.80;;;;;;;-145.18;100.00;46695.56;6181642;23;20439;-68
2023/01/20 00:27:40;;;;;;;33.53;17.93;;;;;;;-145.18;100.00;46699.47;6182116;23;20017;-68
2023/01/20 00:30:07;;;;;;;37.13;18.17;;;;;;;-145.18;100.00;46689.69;6181609;23;20427;-68
2023/01/20 00:32:36;;;;;;;36.50;18.35;;;;;;;-145.18;100.00;46705.31;6182195;23;20015;-68
2023/01/20 00:35:02;;;;;;;38.78;19.70;;;;;;;-145.18;100.00;46699.47;6155891;23;20435;-68
2023/01/20 00:37:27;;;;;;;41.80;19.17;;;;;;;-145.18;100.00;46705.31;6181690;23;20017;-68
2023/01/20 00:39:52;;;;;;;42.00;20.07;;;;;;;-145.18;100.00;46703.38;6155776;23;20088;-68
2023/01/20 00:42:18;;;;;;;50.57;21.63;;;;;;;-145.18;100.00;46697.50;6155401;23;20009;-68
2023/01/20 00:44:43;;;;;;;45.30;20.37;;;;;;;-145.18;100.00;46707.28;6181912;23;20430;-68
2023/01/20 00:47:08;;;;;;;51.77;23.53;;;;;;;-145.18;100.00;46699.47;6181746;23;20315;-68
2023/01/20 00:49:34;;;;;;;44.50;20.67;;;;;;;-145.18;100.00;46693.59;6155332;23;20024;-68
2023/01/20 00:51:59;;;;;;;54.20;23.43;;;;;;;-145.18;100.00;46703.38;6181997;23;20127;-68
2023/01/20 00:54:24;;;;;;;55.17;22.97;;;;;;;-145.18;100.00;46699.47;6181640;23;20009;-68
2023/01/20 00:56:50;;;;;;;56.10;24.33;;;;;;;-145.18;100.00;46707.28;6181924;23;20345;-68
2023/01/20 00:59:15;;;;;;;49.07;21.97;;;;;;;-145.18;100.00;46693.59;6181812;23;20024;-68
2023/01/20 01:01:40;;;;;;;58.83;24.57;;;;;;;-145.18;100.00;46691.66;6181556;23;20020;-68
2023/01/20 01:04:06;;;;;;;59.47;25.40;;;;;;;-145.18;100.00;46705.31;6181615;23;20080;-68
2023/01/20 01:06:31;;;;;;;73.97;26.90;;;;;;;-145.18;100.00;46699.47;6181971;23;20056;-68
2023/01/20 01:08:57;;;;;;;59.70;27.23;;;;;;;-145.18;100.00;46697.50;6181855;23;20055;-68
2023/01/20 01:11:22;;;;;;;62.07;26.07;;;;;;;-145.18;100.00;46701.41;6181698;23;20041;-68
2023/01/20 01:13:48;;;;;;;68.90;27.53;;;;;;;-145.18;100.00;46703.38;6181446;23;20096;-68
2023/01/20 01:16:14;;;;;;;69.13;26.70;;;;;;;-145.18;100.00;46709.22;6181650;23;20017;-68
2023/01/20 01:18:41;;;;;;;77.28;31.08;;;;;;;-145.18;100.00;46699.47;6181968;23;20039;-68
2023/01/20 01:21:08;;;;;;;76.72;29.92;;;;;;;-145.18;100.00;46705.31;6181850;23;20013;-68
2023/01/20 01:23:33;;;;;;;77.45;28.83;;;;;;;-145.18;100.00;46701.41;6181309;23;20020;-68
2023/01/20 01:25:59;;;;;;;79.83;30.53;;;;;;;-145.18;100.00;46699.47;6181777;23;20088;-68
2023/01/20 01:28:25;;;;;;;86.57;30.40;;;;;;;-145.18;100.00;46697.50;6181303;23;20005;-68
2023/01/20 01:30:50;;;;;;;81.25;31.23;;;;;;;-145.18;100.00;46697.50;6181834;23;20088;-68
2023/01/20 01:33:16;;;;;;;99.33;34.60;;;;;;;-145.18;100.00;46697.50;6181337;23;20029;-68
2023/01/20 01:35:41;;;;;;;85.20;30.43;;;;;;;-145.18;100.00;46701.41;6181828;23;20435;-68
2023/01/20 01:38:06;;;;;;;83.17;30.63;;;;;;;-145.18;100.00;46699.47;6181518;23;20065;-68
2023/01/20 01:40:33;;;;;;;88.53;32.03;;;;;;;-145.18;100.00;46707.28;6181385;23;20005;-68
2023/01/20 01:42:58;;;;;;;91.78;31.25;;;;;;;-145.18;100.00;46707.28;6182025;23;20037;-68
2023/01/20 01:45:28;;;;;;;85.47;32.17;;;;;;;-145.18;100.00;46701.41;6181455;23;20447;-68
2023/01/20 01:48:09;;;;;;;84.50;30.60;;;;;;;-145.18;100.00;46695.56;6181471;23;20040;-68
2023/01/20 01:50:44;;;;;;;81.53;29.88;;;;;;;-145.18;100.00;46703.38;6182142;23;20002;-68
2023/01/20 01:53:12;;;;;;;89.13;33.45;;;;;;;-145.18;100.00;46703.38;6181372;23;20059;-68
2023/01/20 01:55:42;;;;;;;90.30;30.05;;;;;;;-145.18;100.00;46705.31;6155526;23;20057;-68
2023/01/20 01:58:12;;;;;;;86.38;32.22;;;;;;;-145.18;100.00;46707.28;6181288;23;20012;-68
2023/01/20 02:00:38;;;;;;;89.00;30.63;;;;;;;-145.18;100.00;46701.41;6182151;23;20009;-68
2023/01/20 02:03:05;;;;;;;84.40;32.17;;;;;;;-145.18;100.00;46713.13;6181156;23;20009;-68
2023/01/20 02:05:31;;;;;;;76.90;28.90;;;;;;;-145.18;100.00;46699.47;6181385;23;20015;-68
2023/01/20 02:07:58;;;;;;;86.55;30.23;;;;;;;-145.18;100.00;46705.31;6181461;23;20037;-68
2023/01/20 02:10:24;;;;;;;82.78;29.75;;;;;;;-145.18;100.00;46703.38;6181332;23;20013;-68
2023/01/20 02:12:50;;;;;;;81.17;28.47;;;;;;;-145.18;100.00;46695.56;6181121;23;20036;-68
2023/01/20 02:15:21;;;;;;;82.57;27.92;;;;;;;-145.18;100.00;46695.56;6181206;23;20481;-68
2023/01/20 02:18:25;;;;;;;86.63;28.63;;;;;;;-145.18;100.00;46713.13;6183287;23;20016;-68
2023/01/20 02:21:15;;;;;;;86.50;28.20;;;;;;;-145.18;100.00;46691.66;6108127;23;20505;-68
2023/01/20 02:23:58;;;;;;;90.35;29.10;;;;;;;-145.18;100.00;46701.41;6183132;23;20019;-68
2023/01/20 02:26:32;;;;;;;85.82;28.35;;;;;;;-145.18;100.00;46699.47;6183284;23;20016;-68
2023/01/20 02:29:22;;;;;;;94.32;32.13;;;;;;;-145.18;100.00;46695.56;6183217;23;20465;-68
2023/01/20 02:31:59;;;;;;;80.05;29.67;;;;;;;-145.18;100.00;46703.38;6183152;23;20008;-68
2023/01/20 02:34:36;;;;;;;84.35;28.55;;;;;;;-145.18;100.00;46701.41;6182982;23;20012;-68
2023/01/20 02:37:27;;;;;;;81.38;30.17;;;;;;;-145.18;100.00;46701.41;6182975;23;20063;-68
2023/01/20 02:40:16;;;;;;;82.50;31.50;;;;;;;-145.18;100.00;46689.69;6183342;23;20012;-68
2023/01/20 02:42:54;;;;;;;85.35;31.80;;;;;;;-145.18;100.00;46701.41;6183059;23;20005;-68
2023/01/20 02:45:28;;;;;;;83.07;30.70;;;;;;;-145.18;100.00;46693.59;6182681;23;20009;-68
2023/01/20 02:48:22;;;;;;;83.13;32.67;;;;;;;-145.18;100.00;46689.69;6182946;23;20013;-68
2023/01/20 02:51:09;;;;;;;84.93;32.17;;;;;;;-145.18;100.00;46707.28;6183012;23;20012;-68
2023/01/20 02:53:46;;;;;;;90.45;31.63;;;;;;;-145.18;100.00;46695.56;6183329;23;20005;-68
2023/01/20 02:56:12;;;;;;;89.53;33.92;;;;;;;-145.18;100.00;46691.66;6182881;23;20005;-68
2023/01/20 02:58:55;;;;;;;93.67;33.83;;;;;;;-145.18;100.00;46701.41;6182905;23;20669;-68
2023/01/20 03:04:57;;;;;;;96.88;34.28;;;;;;;-145.18;100.00;46695.56;6149623;23;20025;-68
2023/01/20 03:08:51;;;;;;;94.70;34.20;;;;;;;-145.18;100.00;46691.66;6153309;23;20382;-68
2023/01/20 03:12:37;;;;;;;97.50;33.70;;;;;;;-145.18;100.00;46697.50;6154087;23;20001;-68
2023/01/20 03:16:36;;;;;;;107.07;37.65;;;;;;;-145.18;100.00;46691.66;6153157;23;20469;-67
2023/01/20 03:20:29;;;;;;;98.00;34.97;;;;;;;-145.18;100.00;46707.28;6153016;23;20006;-68
2023/01/20 03:24:26;;;;;;;110.15;37.85;;;;;;;-145.18;100.00;46691.66;6152956;23;20064;-68
2023/01/20 03:28:23;;;;;;;97.72;35.80;;;;;;;-145.18;100.00;46695.56;6152535;23;20005;-68
2023/01/20 03:32:02;;;;;;;101.35;36.03;;;;;;;-145.18;100.00;46703.38;6153226;23;20048;-68
2023/01/20 03:42:53;;;;;;;103.93;33.97;;;;;;;-145.18;100.00;46705.31;6123768;23;20097;-68
2023/01/20 03:46:23;;;;;;;103.60;35.75;;;;;;;-145.18;100.00;46699.47;6123924;23;20009;-68
2023/01/20 03:50:06;;;;;;;104.82;35.90;;;;;;;-145.18;100.00;46693.59;6123015;23;20464;-68
2023/01/20 03:53:44;;;;;;;104.25;37.55;;;;;;;-145.18;100.00;46693.59;6122082;23;20053;-68
2023/01/20 03:57:17;;;;;;;105.88;36.20;;;;;;;-145.18;100.00;46695.56;6123813;23;20072;-68
2023/01/20 04:01:13;;;;;;;110.40;37.95;;;;;;;-145.18;100.00;46691.66;6123483;23;20346;-68
